Time;durP1;ratioP1;P1;durP2;ratioP2;P2;SDS_P1;SDS_P2;PMS_P1;PMS_P2;Temp;Humidity;BMP_temperature;BMP_pressure;BME280_temperature;BME280_humidity;BME280_pressure;Samples;Min_cycle;Max_cycle;Signal;HPM_P1;HPM_P2
2021/04/25 00:01:02;;;;;;;3.57;3.37;;;19.40;30.60;;;;;;5014977;28;20228;-75
2021/04/25 00:03:27;;;;;;;3.63;3.43;;;19.40;30.60;;;;;;5015005;28;20652;-75
2021/04/25 00:05:53;;;;;;;4.20;3.90;;;19.40;30.60;;;;;;5014702;28;20205;-75
2021/04/25 00:08:18;;;;;;;4.13;3.83;;;19.40;30.60;;;;;;5014884;28;20705;-75
2021/04/25 00:10:44;;;;;;;3.43;3.30;;;19.40;30.50;;;;;;5014847;28;20188;-75
2021/04/25 00:13:10;;;;;;;3.60;3.40;;;19.30;30.50;;;;;;5013637;28;20181;-75
2021/04/25 00:15:36;;;;;;;4.17;3.97;;;19.40;30.60;;;;;;5014321;28;20192;-75
2021/04/25 00:18:01;;;;;;;3.80;3.60;;;19.30;30.50;;;;;;5014668;28;20443;-75
2021/04/25 00:20:27;;;;;;;3.83;3.63;;;19.30;30.50;;;;;;5013290;28;20523;-75
2021/04/25 00:22:53;;;;;;;3.47;3.27;;;19.30;30.50;;;;;;5014557;28;20185;-75
2021/04/25 00:25:18;;;;;;;3.77;3.57;;;19.30;30.50;;;;;;5014318;28;20316;-75
2021/04/25 00:27:45;;;;;;;3.60;3.40;;;19.30;30.50;;;;;;5014375;28;20292;-75
2021/04/25 00:30:13;;;;;;;3.50;3.30;;;19.30;30.50;;;;;;5014526;28;20252;-75
2021/04/25 00:32:39;;;;;;;3.00;2.90;;;19.30;30.50;;;;;;5012935;28;20413;-75
2021/04/25 00:35:05;;;;;;;3.70;3.50;;;19.30;30.50;;;;;;5014081;28;20820;-75
2021/04/25 00:37:31;;;;;;;3.33;3.13;;;19.30;30.50;;;;;;5014071;28;20220;-75
2021/04/25 00:39:57;;;;;;;3.20;3.10;;;19.30;30.50;;;;;;5014034;28;20416;-75
2021/04/25 00:42:22;;;;;;;3.33;3.20;;;19.30;30.50;;;;;;5014325;28;20181;-75
2021/04/25 00:44:48;;;;;;;3.40;3.30;;;19.30;30.50;;;;;;5014036;28;20644;-75
2021/04/25 00:47:14;;;;;;;3.30;3.20;;;19.30;30.50;;;;;;5013910;28;20211;-75
2021/04/25 00:49:40;;;;;;;3.80;3.60;;;19.20;31.10;;;;;;5014264;28;20201;-75
2021/04/25 00:52:07;;;;;;;3.53;3.33;;;19.30;30.50;;;;;;5014186;28;20169;-75
2021/04/25 00:54:34;;;;;;;3.30;3.20;;;19.30;30.50;;;;;;5013944;28;20412;-75
2021/04/25 00:56:59;;;;;;;3.93;3.70;;;19.30;30.50;;;;;;5013588;28;20795;-75
2021/04/25 00:59:28;;;;;;;3.43;3.23;;;19.20;30.50;;;;;;5014021;28;20427;-75
2021/04/25 01:01:53;;;;;;;3.63;3.33;;;19.30;30.50;;;;;;5012491;28;20640;-75
2021/04/25 01:04:20;;;;;;;3.43;3.23;;;19.20;30.50;;;;;;5013867;28;20420;-75
2021/04/25 01:06:45;;;;;;;3.47;3.27;;;19.20;30.50;;;;;;5013461;28;20300;-75
2021/04/25 01:09:12;;;;;;;2.90;2.73;;;19.20;30.50;;;;;;5013882;28;20508;-75
2021/04/25 01:11:37;;;;;;;3.13;3.00;;;19.20;30.50;;;;;;5014214;28;20177;-75
2021/04/25 01:14:03;;;;;;;3.53;3.37;;;19.20;30.50;;;;;;5014520;28;20491;-75
2021/04/25 01:16:28;;;;;;;3.00;2.90;;;19.20;30.50;;;;;;5015608;28;20169;-75
2021/04/25 01:18:55;;;;;;;2.97;2.83;;;19.20;30.50;;;;;;5015176;28;20621;-75
2021/04/25 01:21:21;;;;;;;3.03;2.93;;;19.20;30.50;;;;;;5014427;28;20678;-75
2021/04/25 01:23:46;;;;;;;3.50;3.33;;;19.20;30.40;;;;;;5013773;28;20451;-75
2021/04/25 01:26:12;;;;;;;3.37;3.17;;;19.20;30.40;;;;;;5013384;28;20535;-75
2021/04/25 01:28:37;;;;;;;3.00;2.80;;;19.20;30.50;;;;;;5013497;28;20213;-75
2021/04/25 01:31:03;;;;;;;3.27;3.07;;;19.20;30.50;;;;;;5012936;28;20176;-75
2021/04/25 01:33:29;;;;;;;3.20;3.00;;;19.20;30.50;;;;;;5013479;28;20173;-75
2021/04/25 01:35:55;;;;;;;2.97;2.87;;;19.10;30.40;;;;;;5013070;28;20530;-75
2021/04/25 01:38:21;;;;;;;3.10;3.00;;;19.20;30.50;;;;;;5013381;28;20212;-75
2021/04/25 01:40:47;;;;;;;3.47;3.27;;;19.20;30.50;;;;;;5013356;28;20450;-75
2021/04/25 01:43:12;;;;;;;2.87;2.77;;;19.10;30.40;;;;;;5013135;28;20499;-75
2021/04/25 01:45:38;;;;;;;3.53;3.33;;;19.10;30.40;;;;;;5012947;28;20787;-75
2021/04/25 01:48:06;;;;;;;3.67;3.37;;;19.10;30.40;;;;;;5013121;28;20213;-75
2021/04/25 01:50:32;;;;;;;2.97;2.77;;;19.10;30.40;;;;;;5013213;28;20898;-75
2021/04/25 01:52:58;;;;;;;3.20;3.10;;;19.10;30.40;;;;;;5013030;28;20474;-75
2021/04/25 01:55:26;;;;;;;3.40;3.20;;;19.10;30.50;;;;;;5011465;28;20408;-75
2021/04/25 01:57:52;;;;;;;3.30;3.20;;;19.10;30.40;;;;;;5012767;28;20432;-75
2021/04/25 02:00:26;;;;;;;3.60;3.40;;;19.10;30.40;;;;;;5012806;28;20957;-75
2021/04/25 02:02:53;;;;;;;3.20;3.10;;;19.10;30.40;;;;;;5013025;28;20183;-75
2021/04/25 02:05:19;;;;;;;3.03;2.93;;;19.10;30.40;;;;;;5012524;28;20419;-75
2021/04/25 02:07:48;;;;;;;2.80;2.70;;;19.10;30.40;;;;;;5012592;28;20466;-75
2021/04/25 02:10:13;;;;;;;3.57;3.37;;;19.10;30.40;;;;;;5011646;28;20511;-75
2021/04/25 02:12:39;;;;;;;2.97;2.77;;;19.10;30.40;;;;;;5012732;28;20516;-75
2021/04/25 02:15:06;;;;;;;3.60;3.40;;;19.10;30.40;;;;;;5012332;28;20204;-75
2021/04/25 02:17:32;;;;;;;3.37;3.27;;;19.10;30.30;;;;;;5012805;28;20197;-75
2021/04/25 02:19:58;;;;;;;3.10;2.90;;;19.10;30.40;;;;;;5012812;28;20417;-75
2021/04/25 02:22:24;;;;;;;3.43;3.23;;;19.10;30.40;;;;;;5011526;28;20178;-75
2021/04/25 02:24:50;;;;;;;2.77;2.63;;;19.10;30.40;;;;;;5012730;28;20551;-75
2021/04/25 02:27:15;;;;;;;3.07;2.87;;;19.10;30.40;;;;;;5012374;28;20555;-75
2021/04/25 02:29:41;;;;;;;3.40;3.20;;;19.10;30.40;;;;;;5012564;28;20184;-76
2021/04/25 02:32:06;;;;;;;3.27;3.10;;;19.10;30.30;;;;;;5012440;28;20178;-75
2021/04/25 02:34:32;;;;;;;3.10;2.90;;;19.00;30.30;;;;;;5012511;28;20255;-75
2021/04/25 02:36:58;;;;;;;2.97;2.83;;;19.10;30.40;;;;;;5012074;28;20197;-75
2021/04/25 02:39:24;;;;;;;3.00;2.90;;;19.10;30.50;;;;;;5011329;28;20486;-75
2021/04/25 02:41:50;;;;;;;3.30;3.10;;;19.00;30.40;;;;;;5012147;28;20447;-75
2021/04/25 02:44:15;;;;;;;3.00;2.90;;;19.00;30.30;;;;;;5012063;28;20169;-75
2021/04/25 02:46:41;;;;;;;2.90;2.80;;;19.00;30.40;;;;;;5011963;28;20195;-76
2021/04/25 02:49:07;;;;;;;2.70;2.60;;;19.00;30.30;;;;;;5012281;28;20184;-75
2021/04/25 02:51:33;;;;;;;2.90;2.80;;;19.00;30.30;;;;;;5012337;28;20177;-75
2021/04/25 02:53:58;;;;;;;3.03;2.90;;;19.00;30.20;;;;;;5012180;28;20204;-75
2021/04/25 02:56:24;;;;;;;2.90;2.80;;;19.00;30.30;;;;;;5011860;28;20415;-75
2021/04/25 02:58:49;;;;;;;3.13;3.03;;;19.00;30.30;;;;;;5011987;28;20189;-75
2021/04/25 03:01:15;;;;;;;2.87;2.77;;;19.00;30.40;;;;;;5012067;28;20177;-75
2021/04/25 03:03:40;;;;;;;3.00;2.90;;;19.00;30.30;;;;;;5012198;28;20183;-75
2021/04/25 03:06:06;;;;;;;2.67;2.57;;;19.00;30.40;;;;;;5011631;28;20220;-75
2021/04/25 03:08:32;;;;;;;2.67;2.57;;;19.00;30.40;;;;;;5011907;28;20334;-75
2021/04/25 03:10:57;;;;;;;2.90;2.80;;;19.00;30.40;;;;;;5011939;28;20628;-75
2021/04/25 03:13:23;;;;;;;2.60;2.50;;;19.00;30.40;;;;;;5011900;28;20169;-75
2021/04/25 03:15:49;;;;;;;3.13;2.93;;;19.00;30.40;;;;;;5011454;28;20216;-75
2021/04/25 03:18:14;;;;;;;2.43;2.33;;;19.00;30.40;;;;;;5012047;28;20225;-75
2021/04/25 03:20:40;;;;;;;2.90;2.70;;;19.00;30.40;;;;;;5011867;28;20421;-75
2021/04/25 03:23:05;;;;;;;2.53;2.43;;;19.00;30.40;;;;;;5011926;28;20223;-75
2021/04/25 03:25:31;;;;;;;2.77;2.67;;;19.00;30.40;;;;;;5011681;28;20545;-75
2021/04/25 03:27:56;;;;;;;2.63;2.53;;;19.00;30.50;;;;;;5011549;28;20268;-75
2021/04/25 03:30:22;;;;;;;3.00;2.90;;;19.00;30.40;;;;;;5012150;28;20180;-76
2021/04/25 03:32:48;;;;;;;2.87;2.77;;;19.00;30.50;;;;;;5011803;28;20170;-75
2021/04/25 03:35:16;;;;;;;2.80;2.60;;;19.00;30.50;;;;;;5011519;28;20180;-75
2021/04/25 03:37:42;;;;;;;2.80;2.70;;;19.00;30.50;;;;;;5010427;28;20193;-75
2021/04/25 03:40:11;;;;;;;3.90;3.00;;;19.00;30.50;;;;;;5011452;28;20930;-75
2021/04/25 03:42:37;;;;;;;3.00;2.90;;;19.00;30.50;;;;;;5011377;28;20424;-75
2021/04/25 03:45:07;;;;;;;2.50;2.40;;;19.10;30.50;;;;;;5011435;28;20969;-75
2021/04/25 03:47:33;;;;;;;2.60;2.50;;;19.10;30.20;;;;;;5011317;28;20460;-76
2021/04/25 03:49:59;;;;;;;2.60;2.50;;;19.20;30.00;;;;;;5010073;28;20508;-75
2021/04/25 03:52:24;;;;;;;2.50;2.40;;;19.30;29.90;;;;;;5011462;28;20212;-75
2021/04/25 03:54:50;;;;;;;2.70;2.60;;;19.40;29.70;;;;;;5013884;28;20170;-75
2021/04/25 03:57:16;;;;;;;2.73;2.63;;;19.50;29.60;;;;;;5014675;28;20197;-75
2021/04/25 03:59:41;;;;;;;2.67;2.57;;;19.60;29.70;;;;;;5015101;28;20176;-75
2021/04/25 04:02:07;;;;;;;2.50;2.40;;;19.70;29.80;;;;;;5014920;28;20182;-75
2021/04/25 04:04:32;;;;;;;2.53;2.43;;;19.70;29.80;;;;;;5014889;28;20173;-75
2021/04/25 04:06:58;;;;;;;2.80;2.70;;;19.70;29.80;;;;;;5014426;28;20343;-75
2021/04/25 04:09:23;;;;;;;2.90;2.80;;;19.80;29.80;;;;;;5013483;28;20224;-75
2021/04/25 04:11:49;;;;;;;2.43;2.33;;;19.80;29.90;;;;;;5014536;28;20256;-75
2021/04/25 04:14:14;;;;;;;2.90;2.70;;;19.80;29.80;;;;;;5014592;28;20192;-75
2021/04/25 04:16:40;;;;;;;2.50;2.40;;;19.80;29.80;;;;;;5013198;28;20177;-75
2021/04/25 04:19:06;;;;;;;2.40;2.30;;;19.80;29.80;;;;;;5014288;28;20176;-75
2021/04/25 04:21:32;;;;;;;2.70;2.60;;;19.80;29.60;;;;;;5013284;28;20205;-75
2021/04/25 04:23:58;;;;;;;2.60;2.50;;;19.80;29.80;;;;;;5014582;28;20177;-75
2021/04/25 04:26:23;;;;;;;2.80;2.70;;;19.80;29.60;;;;;;5014043;28;20408;-75
2021/04/25 04:28:49;;;;;;;2.63;2.53;;;19.80;29.70;;;;;;5014354;28;20616;-75
2021/04/25 04:31:14;;;;;;;3.07;2.97;;;19.80;29.80;;;;;;5014229;28;20605;-75
2021/04/25 04:33:40;;;;;;;2.83;2.73;;;19.80;29.80;;;;;;5014362;28;20169;-75
2021/04/25 04:36:06;;;;;;;2.63;2.53;;;19.80;29.80;;;;;;5014136;28;20542;-75
2021/04/25 04:38:32;;;;;;;2.80;2.70;;;19.80;29.90;;;;;;5014056;28;20206;-75
2021/04/25 04:40:58;;;;;;;2.83;2.73;;;19.80;29.90;;;;;;5014097;28;20758;-75
2021/04/25 04:43:24;;;;;;;2.43;2.33;;;19.80;29.80;;;;;;5014362;28;20177;-75
2021/04/25 04:45:51;;;;;;;2.77;2.57;;;19.80;29.80;;;;;;5013766;28;20177;-74
2021/04/25 04:48:17;;;;;;;2.40;2.30;;;19.80;29.80;;;;;;5013936;28;20464;-75
2021/04/25 04:50:42;;;;;;;2.50;2.40;;;19.80;29.80;;;;;;5014028;28;20419;-75
2021/04/25 04:53:08;;;;;;;2.73;2.63;;;19.80;29.80;;;;;;5013908;28;20174;-75
2021/04/25 04:55:33;;;;;;;2.50;2.40;;;19.70;29.80;;;;;;5013837;28;20641;-75
2021/04/25 04:57:59;;;;;;;2.70;2.60;;;19.70;30.30;;;;;;5013913;28;20692;-76
2021/04/25 05:00:24;;;;;;;2.60;2.50;;;19.70;29.80;;;;;;5013805;28;20189;-75
2021/04/25 05:02:50;;;;;;;2.40;2.30;;;19.60;29.70;;;;;;5013831;28;20648;-75
2021/04/25 05:05:15;;;;;;;3.17;3.00;;;19.70;29.80;;;;;;5012868;28;20174;-75
2021/04/25 05:07:41;;;;;;;2.73;2.63;;;19.60;29.70;;;;;;5013699;28;20201;-74
2021/04/25 05:10:07;;;;;;;2.50;2.40;;;19.60;29.70;;;;;;5012321;28;20177;-75
2021/04/25 05:12:33;;;;;;;2.70;2.60;;;19.60;29.70;;;;;;5013950;28;20178;-75
2021/04/25 05:14:59;;;;;;;2.27;2.17;;;19.60;29.70;;;;;;5010275;28;20868;-75
2021/04/25 05:17:25;;;;;;;2.93;2.73;;;19.60;29.70;;;;;;5032745;28;20432;-74
2021/04/25 05:19:53;;;;;;;2.97;2.77;;;19.50;29.60;;;;;;5033942;28;20447;-74
2021/04/25 05:22:18;;;;;;;2.60;2.50;;;19.50;29.60;;;;;;5032351;28;20419;-75
2021/04/25 05:24:44;;;;;;;2.97;2.77;;;19.50;29.60;;;;;;5033308;28;20789;-72
2021/04/25 05:27:09;;;;;;;3.43;3.30;;;19.50;30.00;;;;;;5031378;28;20236;-72
2021/04/25 05:29:35;;;;;;;6.23;2.90;;;19.50;30.20;;;;;;5033217;28;20223;-71
2021/04/25 05:32:02;;;;;;;3.17;3.00;;;19.60;30.50;;;;;;5032722;28;20177;-72
2021/04/25 05:34:28;;;;;;;3.40;3.20;;;19.60;30.70;;;;;;5033117;28;20419;-73
2021/04/25 05:36:53;;;;;;;2.90;2.70;;;19.60;30.90;;;;;;5032673;28;20427;-73
2021/04/25 05:39:19;;;;;;;2.83;2.60;;;19.60;31.00;;;;;;5032337;28;20177;-73
2021/04/25 05:41:45;;;;;;;2.87;2.73;;;19.70;31.40;;;;;;5032812;28;20290;-73
2021/04/25 05:44:10;;;;;;;3.00;2.80;;;19.70;31.10;;;;;;5032731;28;20403;-73
2021/04/25 05:46:36;;;;;;;3.07;2.87;;;19.70;31.20;;;;;;5032222;28;20176;-73
2021/04/25 05:49:03;;;;;;;3.10;2.90;;;19.70;31.10;;;;;;5032610;28;20552;-72
2021/04/25 05:51:28;;;;;;;3.30;3.10;;;19.70;30.80;;;;;;5031367;28;20211;-72
2021/04/25 05:53:54;;;;;;;3.57;3.37;;;19.80;31.00;;;;;;5032094;28;20447;-72
2021/04/25 05:56:20;;;;;;;4.93;3.40;;;19.80;30.70;;;;;;5032297;28;20263;-72
2021/04/25 05:58:47;;;;;;;3.27;2.97;;;19.80;30.50;;;;;;5031258;28;20203;-72
2021/04/25 06:01:13;;;;;;;4.30;3.10;;;19.80;30.60;;;;;;5032190;28;20423;-73
2021/04/25 06:03:38;;;;;;;4.13;3.00;;;19.90;30.80;;;;;;5032597;28;20408;-73
2021/04/25 06:06:04;;;;;;;4.10;3.60;;;19.90;31.00;;;;;;5032183;28;20268;-73
2021/04/25 06:08:30;;;;;;;3.80;3.40;;;19.90;31.00;;;;;;5031892;28;20624;-73
2021/04/25 06:10:55;;;;;;;3.33;3.03;;;19.90;31.20;;;;;;5032373;28;20473;-73
2021/04/25 06:13:21;;;;;;;3.80;3.40;;;20.00;31.40;;;;;;5032477;28;20543;-73
2021/04/25 06:15:47;;;;;;;3.87;3.43;;;20.00;31.40;;;;;;5031659;28;20565;-73
2021/04/25 06:18:12;;;;;;;10.23;3.90;;;20.00;31.50;;;;;;5031253;28;20239;-73
2021/04/25 06:20:38;;;;;;;5.43;2.93;;;20.00;31.40;;;;;;5032416;28;20188;-73
2021/04/25 06:23:03;;;;;;;2.87;2.77;;;20.00;31.30;;;;;;5030429;28;20187;-73
2021/04/25 06:25:29;;;;;;;3.57;2.83;;;19.90;31.30;;;;;;5032079;28;20263;-74
2021/04/25 06:27:54;;;;;;;3.27;2.57;;;19.90;31.40;;;;;;5031958;28;20252;-73
2021/04/25 06:30:21;;;;;;;3.77;3.40;;;19.80;31.40;;;;;;5031583;28;20180;-73
2021/04/25 06:32:47;;;;;;;7.07;3.27;;;19.80;31.30;;;;;;5030054;28;20196;-73
2021/04/25 06:35:14;;;;;;;3.67;3.23;;;19.80;31.50;;;;;;5030457;28;20416;-73
2021/04/25 06:37:45;;;;;;;7.03;5.20;;;19.80;31.70;;;;;;5031529;28;20446;-73
2021/04/25 06:40:11;;;;;;;7.03;4.87;;;19.50;28.20;;;;;;5031895;28;20415;-73
2021/04/25 06:42:39;;;;;;;10.10;6.03;;;19.30;28.40;;;;;;5031864;28;20416;-76
2021/04/25 06:45:07;;;;;;;5.50;4.90;;;19.30;28.00;;;;;;5031248;28;20407;-73
2021/04/25 06:47:33;;;;;;;5.83;4.93;;;19.20;28.10;;;;;;5031498;28;21039;-75
2021/04/25 06:49:58;;;;;;;6.57;4.53;;;19.30;28.50;;;;;;5031631;28;20415;-75
2021/04/25 06:52:24;;;;;;;4.67;4.27;;;19.30;28.70;;;;;;5031221;28;20184;-76
2021/04/25 06:54:49;;;;;;;5.40;4.87;;;19.30;28.70;;;;;;5030375;28;20173;-74
2021/04/25 06:57:15;;;;;;;5.70;5.30;;;19.30;28.80;;;;;;5031272;28;20211;-75
2021/04/25 06:59:40;;;;;;;4.83;4.53;;;19.30;29.00;;;;;;5031439;28;20192;-73
2021/04/25 07:02:06;;;;;;;4.97;4.50;;;19.30;29.10;;;;;;5031724;28;20215;-75
2021/04/25 07:04:32;;;;;;;5.67;4.90;;;19.30;29.30;;;;;;5031509;28;20179;-74
2021/04/25 07:06:57;;;;;;;4.77;4.40;;;19.30;29.50;;;;;;5030885;28;20200;-73
2021/04/25 07:09:23;;;;;;;5.00;4.57;;;19.30;29.50;;;;;;5031750;28;20302;-73
2021/04/25 07:11:48;;;;;;;5.90;4.60;;;19.30;29.50;;;;;;5031575;28;20207;-74
2021/04/25 07:14:14;;;;;;;5.60;5.00;;;19.30;29.50;;;;;;5031157;28;20215;-74
2021/04/25 07:16:39;;;;;;;4.20;3.90;;;19.30;29.50;;;;;;5031190;28;20169;-74
2021/04/25 07:19:05;;;;;;;5.00;4.70;;;19.30;29.50;;;;;;5032712;28;20188;-74
2021/04/25 07:21:30;;;;;;;5.97;4.50;;;19.20;29.50;;;;;;5035547;28;20201;-72
2021/04/25 07:23:56;;;;;;;7.20;4.50;;;19.30;29.50;;;;;;5038804;28;20544;-71
2021/04/25 07:26:21;;;;;;;5.40;4.97;;;19.40;29.60;;;;;;5030325;28;20165;-72
2021/04/25 07:28:47;;;;;;;5.40;4.77;;;19.50;29.60;;;;;;5032232;28;20705;-71
2021/04/25 07:31:12;;;;;;;5.53;4.80;;;19.50;29.60;;;;;;5036351;28;20180;-71
2021/04/25 07:33:39;;;;;;;6.43;5.20;;;19.60;29.70;;;;;;5025724;28;20185;-70
2021/04/25 07:36:08;;;;;;;8.03;4.83;;;19.60;29.70;;;;;;5030799;28;20185;-72
2021/04/25 07:38:36;;;;;;;6.03;4.70;;;19.70;29.80;;;;;;5038582;28;20439;-72
2021/04/25 07:41:01;;;;;;;6.60;5.27;;;19.70;29.80;;;;;;5034960;28;20415;-70
2021/04/25 07:43:27;;;;;;;5.80;4.73;;;19.80;29.80;;;;;;5035038;28;20502;-70
2021/04/25 07:45:52;;;;;;;5.90;5.30;;;19.80;29.80;;;;;;5034616;28;20219;-71
2021/04/25 07:48:18;;;;;;;5.10;4.70;;;19.80;29.80;;;;;;5034192;28;20311;-71
2021/04/25 07:50:44;;;;;;;5.20;4.60;;;19.80;29.80;;;;;;5033647;28;20176;-71
2021/04/25 07:53:10;;;;;;;5.43;5.00;;;19.80;29.80;;;;;;5034780;28;20174;-71
2021/04/25 07:55:35;;;;;;;6.97;5.80;;;19.80;29.90;;;;;;5034961;28;20408;-71
2021/04/25 07:58:01;;;;;;;4.70;4.37;;;19.80;29.80;;;;;;5035115;28;20193;-71
2021/04/25 08:00:26;;;;;;;12.93;5.30;;;19.90;29.90;;;;;;5033620;28;20301;-70
2021/04/25 08:02:52;;;;;;;6.13;5.17;;;19.90;29.90;;;;;;5022325;28;20726;-71
2021/04/25 08:05:17;;;;;;;5.17;4.80;;;19.90;29.90;;;;;;5028362;28;20651;-70
2021/04/25 08:07:45;;;;;;;6.80;5.10;;;19.90;29.90;;;;;;5034327;28;20601;-70
2021/04/25 08:10:11;;;;;;;4.97;4.53;;;20.00;30.00;;;;;;5034823;28;20223;-70
2021/04/25 08:12:37;;;;;;;4.97;4.60;;;20.00;30.00;;;;;;5034798;28;20418;-71
2021/04/25 08:15:04;;;;;;;7.00;5.43;;;20.00;30.00;;;;;;5034040;28;20794;-70
2021/04/25 08:17:29;;;;;;;5.33;4.83;;;20.00;30.00;;;;;;5034436;28;20208;-71
2021/04/25 08:19:55;;;;;;;4.63;4.33;;;20.00;30.00;;;;;;5027166;28;21013;-72
2021/04/25 08:22:23;;;;;;;5.27;4.87;;;20.00;30.60;;;;;;5027099;28;20181;-72
2021/04/25 08:24:49;;;;;;;4.93;4.53;;;20.00;30.00;;;;;;5023251;28;20236;-71
2021/04/25 08:27:17;;;;;;;4.60;4.20;;;20.00;30.00;;;;;;5017773;28;20978;-72
2021/04/25 08:29:46;;;;;;;5.23;4.43;;;20.00;30.00;;;;;;5014278;28;20260;-69
2021/04/25 08:32:11;;;;;;;5.07;4.60;;;20.00;30.00;;;;;;5014772;28;20402;-72
2021/04/25 08:34:38;;;;;;;5.40;4.83;;;20.00;30.00;;;;;;5014470;28;20412;-69
2021/04/25 08:37:04;;;;;;;7.23;4.80;;;20.00;30.00;;;;;;5013990;28;20568;-72
2021/04/25 08:39:29;;;;;;;4.70;4.30;;;20.10;30.00;;;;;;5014615;28;20416;-70
2021/04/25 08:41:56;;;;;;;5.27;4.63;;;20.10;30.00;;;;;;5016803;28;20219;-70
2021/04/25 08:44:23;;;;;;;5.53;4.90;;;20.00;30.00;;;;;;5034257;28;20251;-70
2021/04/25 08:46:50;;;;;;;5.20;4.83;;;20.10;30.00;;;;;;5033697;28;20460;-72
2021/04/25 08:49:24;;;;;;;5.03;4.63;;;20.10;30.00;;;;;;5033805;28;20801;-73
2021/04/25 08:51:51;;;;;;;5.67;5.10;;;20.00;30.50;;;;;;5039346;28;20854;-72
2021/04/25 08:54:20;;;;;;;5.00;4.60;;;19.90;30.10;;;;;;5033867;28;20399;-72
2021/04/25 08:56:46;;;;;;;4.73;4.43;;;19.90;30.30;;;;;;5041617;28;20438;-73
2021/04/25 08:59:13;;;;;;;5.00;4.70;;;19.80;30.50;;;;;;5032336;28;20415;-73
2021/04/25 09:01:38;;;;;;;4.93;4.57;;;19.80;30.80;;;;;;5032595;28;20181;-72
2021/04/25 09:04:04;;;;;;;4.70;4.40;;;19.70;30.90;;;;;;5045126;28;20858;-72
2021/04/25 09:06:29;;;;;;;5.30;4.90;;;19.70;30.90;;;;;;5037174;28;20214;-70
2021/04/25 09:09:00;;;;;;;4.87;4.57;;;19.60;30.90;;;;;;5036468;28;20287;-72
2021/04/25 09:11:39;;;;;;;4.67;4.30;;;19.60;30.90;;;;;;5040525;28;20176;-72
2021/04/25 09:14:25;;;;;;;4.60;4.30;;;19.60;30.80;;;;;;5038851;28;20426;-72
2021/04/25 09:17:00;;;;;;;5.40;4.60;;;19.60;30.90;;;;;;5044341;28;20503;-73
2021/04/25 09:19:52;;;;;;;4.30;4.00;;;19.60;30.90;;;;;;5036537;28;20495;-72
2021/04/25 09:22:19;;;;;;;4.70;4.30;;;19.60;30.90;;;;;;5033259;28;20411;-73
2021/04/25 09:24:45;;;;;;;4.30;4.00;;;19.60;30.90;;;;;;5033275;28;20408;-73
2021/04/25 09:27:11;;;;;;;4.63;4.33;;;19.60;31.70;;;;;;5032690;28;20459;-72
2021/04/25 09:29:52;;;;;;;4.53;4.13;;;19.50;30.90;;;;;;5039169;28;20177;-72
2021/04/25 09:32:30;;;;;;;4.90;4.60;;;19.50;30.90;;;;;;5032453;28;20436;-72
2021/04/25 09:35:17;;;;;;;4.90;4.50;;;19.60;30.90;;;;;;5033248;28;20469;-72
2021/04/25 09:37:45;;;;;;;4.13;3.80;;;19.50;30.90;;;;;;5031534;28;21007;-72
2021/04/25 09:40:22;;;;;;;4.33;4.13;;;19.50;30.90;;;;;;5031404;28;20945;-72
2021/04/25 09:42:54;;;;;;;4.10;3.90;;;19.50;30.90;;;;;;5032398;28;20518;-72
2021/04/25 09:45:44;;;;;;;4.80;4.50;;;19.50;30.80;;;;;;5032491;28;20439;-72
2021/04/25 09:48:30;;;;;;;4.33;4.03;;;19.50;30.80;;;;;;5032257;28;20467;-72
2021/04/25 09:51:16;;;;;;;4.37;4.07;;;19.50;30.90;;;;;;5032371;28;20485;-72
2021/04/25 09:53:54;;;;;;;4.90;4.50;;;19.50;30.80;;;;;;5032690;28;20828;-72
2021/04/25 09:56:24;;;;;;;4.50;4.20;;;19.50;30.90;;;;;;5030858;28;20423;-72
2021/04/25 09:58:56;;;;;;;4.77;4.33;;;19.50;30.90;;;;;;5032271;28;20463;-73
2021/04/25 10:01:25;;;;;;;4.77;4.40;;;19.50;31.00;;;;;;5032324;28;20773;-72
2021/04/25 10:03:51;;;;;;;4.77;4.47;;;19.50;30.90;;;;;;5032078;28;20502;-72
2021/04/25 10:06:19;;;;;;;5.10;4.80;;;19.50;30.90;;;;;;5031611;28;20511;-73
2021/04/25 10:08:49;;;;;;;5.00;4.60;;;19.50;30.80;;;;;;5035130;28;20222;-70
2021/04/25 10:11:15;;;;;;;5.50;5.10;;;19.40;31.10;;;;;;5032708;28;20486;-70
2021/04/25 10:13:47;;;;;;;5.87;4.60;;;19.60;31.20;;;;;;5032012;28;20415;-70
2021/04/25 10:16:17;;;;;;;6.00;5.40;;;19.60;31.20;;;;;;5031551;28;20431;-69
2021/04/25 10:18:43;;;;;;;5.90;5.50;;;19.60;31.10;;;;;;5031826;28;20440;-70
2021/04/25 10:21:10;;;;;;;6.00;5.60;;;19.70;31.10;;;;;;5037215;28;20472;-70
2021/04/25 10:23:36;;;;;;;5.73;5.33;;;19.80;31.50;;;;;;5040722;28;20477;-70
2021/04/25 10:26:16;;;;;;;6.30;5.77;;;19.80;31.80;;;;;;5031637;28;20399;-72
2021/04/25 10:28:56;;;;;;;6.30;5.80;;;19.80;32.20;;;;;;5014973;28;20233;-71
2021/04/25 10:31:35;;;;;;;6.13;5.63;;;19.80;31.80;;;;;;5012313;28;20420;-71
2021/04/25 10:34:16;;;;;;;6.83;6.23;;;19.90;32.00;;;;;;5023783;28;20430;-72
2021/04/25 10:36:47;;;;;;;8.53;6.00;;;19.90;32.00;;;;;;5031366;28;20403;-72
2021/04/25 10:39:34;;;;;;;6.27;5.87;;;19.90;32.00;;;;;;5031785;28;20431;-72
2021/04/25 10:42:23;;;;;;;6.67;5.80;;;19.90;32.40;;;;;;5031692;28;20912;-72
2021/04/25 10:45:02;;;;;;;7.00;6.33;;;19.90;32.50;;;;;;5031786;28;20408;-72
2021/04/25 10:47:30;;;;;;;9.17;8.27;;;19.90;32.00;;;;;;5031473;28;20816;-73
2021/04/25 10:49:59;;;;;;;10.37;9.20;;;20.00;32.70;;;;;;5046294;28;20416;-76
2021/04/25 10:52:29;;;;;;;18.27;12.37;;;19.90;32.90;;;;;;5039433;28;20419;-74
2021/04/25 10:55:13;;;;;;;20.67;15.60;;;20.00;33.10;;;;;;5033821;28;20415;-74
2021/04/25 10:57:57;;;;;;;14.83;12.77;;;19.90;33.60;;;;;;5031385;28;20440;-74
2021/04/25 11:00:36;;;;;;;16.07;14.10;;;19.90;32.60;;;;;;5035005;28;20974;-76
2021/04/25 11:03:07;;;;;;;17.67;15.50;;;19.90;32.80;;;;;;5026277;28;20415;-74
2021/04/25 11:05:39;;;;;;;14.27;12.90;;;19.80;32.50;;;;;;5044173;28;20414;-75
2021/04/25 11:08:17;;;;;;;15.60;14.00;;;19.80;33.50;;;;;;5041158;28;20461;-74
2021/04/25 11:10:51;;;;;;;15.33;13.67;;;19.70;32.60;;;;;;5039919;28;20764;-74
2021/04/25 11:16:13;;;;;;;13.87;12.50;;;19.80;32.90;;;;;;5043694;28;20435;-75
2021/04/25 11:18:49;;;;;;;15.40;13.90;;;19.70;32.90;;;;;;5036189;28;20443;-75
2021/04/25 11:21:31;;;;;;;13.77;12.57;;;19.70;32.80;;;;;;5035529;28;20426;-75
2021/04/25 11:24:05;;;;;;;13.50;12.13;;;19.70;32.90;;;;;;5035531;28;20831;-75
2021/04/25 11:26:37;;;;;;;13.87;12.70;;;19.70;32.90;;;;;;5033384;28;20458;-74
2021/04/25 11:29:20;;;;;;;12.87;11.67;;;19.60;32.90;;;;;;5035124;28;20472;-74
2021/04/25 11:34:26;;;;;;;13.23;12.00;;;19.60;32.70;;;;;;5042380;28;20423;-75
2021/04/25 11:37:02;;;;;;;13.00;11.27;;;19.60;32.70;;;;;;5036742;28;20453;-77
2021/04/25 11:39:41;;;;;;;14.87;12.37;;;19.60;32.70;;;;;;5035089;28;20430;-76
2021/04/25 11:42:08;;;;;;;13.20;12.10;;;19.60;32.70;;;;;;5034862;28;20421;-75
2021/04/25 11:44:36;;;;;;;14.67;13.33;;;19.60;32.70;;;;;;5039001;28;20418;-76
2021/04/25 11:47:10;;;;;;;13.63;12.23;;;19.50;32.60;;;;;;5044789;28;20438;-75
2021/04/25 11:49:45;;;;;;;13.93;12.40;;;19.50;32.70;;;;;;5038117;28;20406;-76
2021/04/25 11:52:19;;;;;;;14.10;12.87;;;19.50;32.60;;;;;;5033661;28;20414;-74
2021/04/25 11:54:47;;;;;;;12.00;10.97;;;19.50;32.50;;;;;;5038350;28;20424;-74
2021/04/25 11:57:15;;;;;;;13.13;11.13;;;19.50;32.50;;;;;;5043382;28;20445;-76
2021/04/25 12:00:18;;;;;;;11.93;10.87;;;19.50;32.40;;;;;;5035309;28;20427;-74
2021/04/25 12:02:58;;;;;;;12.10;11.10;;;19.50;32.50;;;;;;5044280;28;20746;-74
2021/04/25 12:05:24;;;;;;;12.20;11.00;;;19.50;32.40;;;;;;5034042;28;20403;-74
2021/04/25 12:07:57;;;;;;;13.23;12.00;;;19.40;32.30;;;;;;5033657;28;20502;-75
2021/04/25 12:10:36;;;;;;;12.90;11.90;;;19.50;32.50;;;;;;5036480;28;20430;-76
2021/04/25 12:13:16;;;;;;;13.90;12.50;;;19.50;32.40;;;;;;5033174;28;20561;-73
2021/04/25 12:15:50;;;;;;;12.87;11.53;;;19.50;32.30;;;;;;5016636;28;20435;-78
2021/04/25 12:18:19;;;;;;;11.63;10.47;;;19.40;32.20;;;;;;5034030;28;20959;-73
2021/04/25 12:20:49;;;;;;;12.47;11.23;;;19.40;32.20;;;;;;5034440;28;20411;-76
2021/04/25 12:23:18;;;;;;;12.70;11.23;;;19.40;32.20;;;;;;5040533;28;20411;-77
2021/04/25 12:25:44;;;;;;;11.33;10.33;;;19.40;32.20;;;;;;5032640;28;20411;-77
2021/04/25 12:28:10;;;;;;;12.17;10.70;;;19.40;32.20;;;;;;5032557;28;20471;-75
2021/04/25 12:30:36;;;;;;;12.07;11.07;;;19.40;32.20;;;;;;5036759;28;20489;-75
2021/04/25 12:33:10;;;;;;;11.23;10.13;;;19.40;32.20;;;;;;5025576;28;20443;-74
2021/04/25 12:35:41;;;;;;;11.73;10.73;;;19.40;32.20;;;;;;5033567;28;20466;-75
2021/04/25 12:38:33;;;;;;;11.50;10.40;;;19.40;32.20;;;;;;5033349;28;20489;-74
2021/04/25 12:41:05;;;;;;;10.60;9.80;;;19.30;32.00;;;;;;5033832;28;20415;-72
2021/04/25 12:43:55;;;;;;;11.50;10.50;;;19.40;32.10;;;;;;5033993;28;20948;-73
2021/04/25 12:46:27;;;;;;;14.03;10.70;;;19.30;32.00;;;;;;5037157;28;20423;-73
2021/04/25 12:48:55;;;;;;;11.03;10.03;;;19.30;32.00;;;;;;5029965;28;20455;-73
2021/04/25 12:51:28;;;;;;;11.50;10.40;;;19.30;32.00;;;;;;5034570;28;20415;-72
2021/04/25 12:53:59;;;;;;;10.70;9.80;;;19.30;31.90;;;;;;5042637;28;20505;-73